Las Vegas, Nevada
Traffic Map
Current Weather Conditions
Las Vegas, Nevada
Few Clouds
Few Clouds
80°
Feels Like: 80°
Wind Chill: 80° Ceiling: Unl
Heat Index: 80° Visibility: 10mi
Dew Point: 21° Wind: 7mph
Humidity: 11% Direction: 210° (SSW)
Pressure: 29.95in Gusts: 0mph
Raw Report DataKLAS 300356Z 21006KT 10SM FEW250 27/M06 A2995 RMK AO2 SLP122 T02671061
Traffic Incident Summary
Active as of:
Severity:
Category:
InformationThere was an issue retrieving the traffic information for this location. Please try a different location or try again shortly.
Advertisements
Track Severe Weather on mobile